Time,TemperatureF,DewpointF,PressureIn,WindDirection,WindDirectionDegrees,WindSpeedMPH,WindSpeedGustMPH,Humidity,HourlyPrecipIn,Conditions,Clouds,dailyrainin,SoftwareType,DateUTC
2013-03-19 00:11:00,25.0,17.6,29.94,North,-999,0.0,-999.0,73,-99.99,,,-99.99,Acu-Link.com,2013-03-19 05:11:00,
2013-03-19 00:26:00,24.9,17.5,29.94,North,-999,0.0,-999.0,73,-99.99,,,-99.99,Acu-Link.com,2013-03-19 05:26:00,
2013-03-19 00:42:00,24.3,18.1,29.94,North,-999,0.0,-999.0,77,-99.99,,,-99.99,Acu-Link.com,2013-03-19 05:42:00,
2013-03-19 00:57:00,24.3,18.7,29.94,North,-999,0.0,-999.0,79,-99.99,,,-99.99,Acu-Link.com,2013-03-19 05:57:00,
2013-03-19 01:12:00,24.6,18.7,29.94,North,-999,0.0,-999.0,78,-99.99,,,-99.99,Acu-Link.com,2013-03-19 06:12:00,
2013-03-19 01:27:00,25.1,18.9,29.94,North,-999,0.0,-999.0,77,-99.99,,,-99.99,Acu-Link.com,2013-03-19 06:27:00,
2013-03-19 01:43:00,25.1,19.2,29.95,North,-999,0.0,-999.0,78,-99.99,,,-99.99,Acu-Link.com,2013-03-19 06:43:00,
2013-03-19 01:58:00,25.4,19.2,29.95,North,-999,0.0,-999.0,77,-99.99,,,-99.99,Acu-Link.com,2013-03-19 06:58:00,
2013-03-19 02:14:00,25.9,19.1,29.96,North,-999,0.0,-999.0,75,-99.99,,,-99.99,Acu-Link.com,2013-03-19 07:14:00,
2013-03-19 02:29:00,25.7,18.9,29.96,North,-999,0.0,-999.0,75,-99.99,,,-99.99,Acu-Link.com,2013-03-19 07:29:00,
2013-03-19 02:44:00,26.0,18.9,29.96,North,-999,0.0,-999.0,74,-99.99,,,-99.99,Acu-Link.com,2013-03-19 07:44:00,
2013-03-19 02:59:00,25.4,18.6,29.96,North,-999,0.0,-999.0,75,-99.99,,,-99.99,Acu-Link.com,2013-03-19 07:59:00,
2013-03-19 03:15:00,25.5,18.7,29.96,North,-999,0.0,-999.0,75,-99.99,,,-99.99,Acu-Link.com,2013-03-19 08:15:00,
2013-03-19 03:30:00,24.8,18.0,29.96,North,-999,0.0,-999.0,75,-99.99,,,-99.99,Acu-Link.com,2013-03-19 08:30:00,
2013-03-19 04:17:00,23.6,18.9,29.95,North,-999,0.0,-999.0,82,-99.99,,,-99.99,Acu-Link.com,2013-03-19 09:17:00,
2013-03-19 04:32:00,22.5,18.1,29.95,North,-999,0.0,-999.0,83,-99.99,,,-99.99,Acu-Link.com,2013-03-19 09:32:00,
2013-03-19 04:47:00,21.5,17.7,29.95,North,-999,0.0,-999.0,85,-99.99,,,-99.99,Acu-Link.com,2013-03-19 09:47:00,
2013-03-19 05:03:00,20.8,17.6,29.96,North,-999,0.0,-999.0,87,-99.99,,,-99.99,Acu-Link.com,2013-03-19 10:03:00,
2013-03-19 05:18:00,21.0,17.5,29.97,North,-999,0.0,-999.0,86,-99.99,,,-99.99,Acu-Link.com,2013-03-19 10:18:00,
2013-03-19 05:33:00,20.4,17.2,29.97,North,-999,0.0,-999.0,87,-99.99,,,-99.99,Acu-Link.com,2013-03-19 10:33:00,
2013-03-19 05:48:00,21.3,18.3,29.97,North,-999,0.0,-999.0,88,-99.99,,,-99.99,Acu-Link.com,2013-03-19 10:48:00,
2013-03-19 06:04:00,21.7,18.7,29.98,North,-999,0.0,-999.0,88,-99.99,,,-99.99,Acu-Link.com,2013-03-19 11:04:00,
2013-03-19 06:19:00,21.6,18.3,29.98,North,-999,0.0,-999.0,87,-99.99,,,-99.99,Acu-Link.com,2013-03-19 11:19:00,
2013-03-19 06:35:00,21.5,18.5,29.99,North,-999,0.0,-999.0,88,-99.99,,,-99.99,Acu-Link.com,2013-03-19 11:35:00,
2013-03-19 06:50:00,21.4,18.4,29.99,North,-999,1.6,-999.0,88,-99.99,,,-99.99,Acu-Link.com,2013-03-19 11:50:00,
2013-03-19 07:05:00,22.0,18.7,29.99,North,-999,1.6,-999.0,87,-99.99,,,-99.99,Acu-Link.com,2013-03-19 12:05:00,
2013-03-19 07:20:00,22.2,18.9,29.99,North,-999,1.6,-999.0,87,-99.99,,,-99.99,Acu-Link.com,2013-03-19 12:20:00,
2013-03-19 07:51:00,22.3,18.5,30.01,North,-999,1.6,-999.0,85,-99.99,,,-99.99,Acu-Link.com,2013-03-19 12:51:00,
2013-03-19 08:06:00,22.9,19.6,30.01,North,-999,3.2,-999.0,87,-99.99,,,-99.99,Acu-Link.com,2013-03-19 13:06:00,
2013-03-19 08:22:00,23.4,19.8,30.01,North,-999,3.2,-999.0,86,-99.99,,,-99.99,Acu-Link.com,2013-03-19 13:22:00,
2013-03-19 08:52:00,23.6,19.2,30.04,North,-999,4.8,-999.0,83,-99.99,,,-99.99,Acu-Link.com,2013-03-19 13:52:00,
2013-03-19 09:08:00,24.0,19.3,30.04,North,-999,4.8,-999.0,82,-99.99,,,-99.99,Acu-Link.com,2013-03-19 14:08:00,
2013-03-19 09:23:00,24.9,20.2,30.04,North,-999,1.6,-999.0,82,-99.99,,,-99.99,Acu-Link.com,2013-03-19 14:23:00,
2013-03-19 09:38:00,27.2,21.9,30.05,North,-999,3.2,-999.0,80,-99.99,,,-99.99,Acu-Link.com,2013-03-19 14:38:00,
2013-03-19 09:53:00,27.6,21.4,30.05,North,-999,3.2,-999.0,77,-99.99,,,-99.99,Acu-Link.com,2013-03-19 14:53:00,
2013-03-19 10:09:00,28.3,22.3,30.05,North,-999,3.2,-999.0,78,-99.99,,,-99.99,Acu-Link.com,2013-03-19 15:09:00,
2013-03-19 10:24:00,28.6,20.7,30.06,North,-999,3.2,-999.0,72,-99.99,,,-99.99,Acu-Link.com,2013-03-19 15:24:00,
2013-03-19 10:39:00,30.8,22.9,30.06,North,-999,0.0,-999.0,72,-99.99,,,-99.99,Acu-Link.com,2013-03-19 15:39:00,
2013-03-19 10:55:00,32.3,22.2,30.06,North,-999,3.2,-999.0,66,-99.99,,,-99.99,Acu-Link.com,2013-03-19 15:55:00,
2013-03-19 11:10:00,33.2,23.1,30.06,North,-999,3.2,-999.0,66,-99.99,,,-99.99,Acu-Link.com,2013-03-19 16:10:00,
2013-03-19 11:25:00,34.4,21.6,30.06,North,-999,4.8,-999.0,59,-99.99,,,-99.99,Acu-Link.com,2013-03-19 16:25:00,
2013-03-19 11:40:00,36.1,22.4,30.05,North,-999,6.4,-999.0,57,-99.99,,,-99.99,Acu-Link.com,2013-03-19 16:40:00,
2013-03-19 11:56:00,37.9,23.2,30.05,North,-999,6.4,-999.0,55,-99.99,,,-99.99,Acu-Link.com,2013-03-19 16:56:00,
2013-03-19 12:26:00,40.6,22.5,30.05,North,-999,3.2,-999.0,48,-99.99,,,-99.99,Acu-Link.com,2013-03-19 17:26:00,
2013-03-19 12:41:00,42.7,20.7,30.06,North,-999,11.2,-999.0,41,-99.99,,,-99.99,Acu-Link.com,2013-03-19 17:41:00,
2013-03-19 12:57:00,45.3,22.4,30.05,North,-999,12.8,-999.0,40,-99.99,,,-99.99,Acu-Link.com,2013-03-19 17:57:00,
2013-03-19 13:12:00,46.7,27.0,30.04,North,-999,8.0,-999.0,46,-99.99,,,-99.99,Acu-Link.com,2013-03-19 18:12:00,
2013-03-19 13:28:00,47.4,31.6,30.03,North,-999,16.1,-999.0,54,-99.99,,,-99.99,Acu-Link.com,2013-03-19 18:28:00,
2013-03-19 13:43:00,48.8,33.4,30.02,North,-999,8.0,-999.0,55,-99.99,,,-99.99,Acu-Link.com,2013-03-19 18:43:00,
2013-03-19 13:58:00,51.3,31.2,30.02,North,-999,14.5,-999.0,46,-99.99,,,-99.99,Acu-Link.com,2013-03-19 18:58:00,
2013-03-19 14:14:00,52.3,29.9,30.01,North,-999,9.6,-999.0,42,-99.99,,,-99.99,Acu-Link.com,2013-03-19 19:14:00,
2013-03-19 14:29:00,51.5,26.1,30.01,North,-999,11.2,-999.0,37,-99.99,,,-99.99,Acu-Link.com,2013-03-19 19:29:00,
2013-03-19 14:44:00,53.8,26.1,30.00,North,-999,6.4,-999.0,34,-99.99,,,-99.99,Acu-Link.com,2013-03-19 19:44:00,
2013-03-19 14:59:00,51.1,27.6,29.99,North,-999,14.5,-999.0,40,-99.99,,,-99.99,Acu-Link.com,2013-03-19 19:59:00,
2013-03-19 15:14:00,54.9,26.3,29.99,North,-999,3.2,-999.0,33,-99.99,,,-99.99,Acu-Link.com,2013-03-19 20:14:00,
2013-03-19 15:29:00,54.3,23.5,29.98,North,-999,9.6,-999.0,30,-99.99,,,-99.99,Acu-Link.com,2013-03-19 20:29:00,
2013-03-19 15:45:00,51.3,20.9,29.99,North,-999,4.8,-999.0,30,-99.99,,,-99.99,Acu-Link.com,2013-03-19 20:45:00,
2013-03-19 16:00:00,53.2,21.0,29.99,North,-999,8.0,-999.0,28,-99.99,,,-99.99,Acu-Link.com,2013-03-19 21:00:00,
2013-03-19 16:15:00,54.2,21.0,29.99,North,-999,9.6,-999.0,27,-99.99,,,-99.99,Acu-Link.com,2013-03-19 21:15:00,
2013-03-19 16:30:00,51.7,19.7,29.99,North,-999,8.0,-999.0,28,-99.99,,,-99.99,Acu-Link.com,2013-03-19 21:30:00,
2013-03-19 16:46:00,49.8,19.6,29.99,North,-999,3.2,-999.0,30,-99.99,,,-99.99,Acu-Link.com,2013-03-19 21:46:00,
2013-03-19 17:32:00,51.5,19.5,30.01,North,-999,8.0,-999.0,28,-99.99,,,-99.99,Acu-Link.com,2013-03-19 22:32:00,
2013-03-19 17:47:00,50.5,20.2,30.01,North,-999,6.4,-999.0,30,-99.99,,,-99.99,Acu-Link.com,2013-03-19 22:47:00,
2013-03-19 18:02:00,47.8,19.4,30.02,North,-999,0.0,-999.0,32,-99.99,,,-99.99,Acu-Link.com,2013-03-19 23:02:00,
2013-03-19 18:17:00,48.1,20.4,30.03,North,-999,4.8,-999.0,33,-99.99,,,-99.99,Acu-Link.com,2013-03-19 23:17:00,
2013-03-19 18:33:00,47.4,20.5,30.03,North,-999,4.8,-999.0,34,-99.99,,,-99.99,Acu-Link.com,2013-03-19 23:33:00,
2013-03-19 18:48:00,47.0,20.1,30.04,North,-999,6.4,-999.0,34,-99.99,,,-99.99,Acu-Link.com,2013-03-19 23:48:00,
2013-03-19 19:03:00,45.9,20.5,30.04,North,-999,3.2,-999.0,36,-99.99,,,-99.99,Acu-Link.com,2013-03-20 00:03:00,
2013-03-19 19:19:00,43.3,19.4,30.05,North,-999,0.0,-999.0,38,-99.99,,,-99.99,Acu-Link.com,2013-03-20 00:19:00,
2013-03-19 19:34:00,41.7,19.8,30.06,North,-999,9.6,-999.0,41,-99.99,,,-99.99,Acu-Link.com,2013-03-20 00:34:00,
2013-03-19 19:49:00,40.1,20.0,30.07,North,-999,6.4,-999.0,44,-99.99,,,-99.99,Acu-Link.com,2013-03-20 00:49:00,
2013-03-19 20:04:00,39.2,20.2,30.07,North,-999,4.8,-999.0,46,-99.99,,,-99.99,Acu-Link.com,2013-03-20 01:04:00,
2013-03-19 20:20:00,38.2,21.2,30.09,North,-999,9.6,-999.0,50,-99.99,,,-99.99,Acu-Link.com,2013-03-20 01:20:00,
2013-03-19 20:35:00,36.9,21.8,30.10,North,-999,1.6,-999.0,54,-99.99,,,-99.99,Acu-Link.com,2013-03-20 01:35:00,
2013-03-19 20:50:00,35.3,22.0,30.11,North,-999,4.8,-999.0,58,-99.99,,,-99.99,Acu-Link.com,2013-03-20 01:50:00,
2013-03-19 21:06:00,35.5,22.6,30.12,North,-999,1.6,-999.0,59,-99.99,,,-99.99,Acu-Link.com,2013-03-20 02:06:00,
2013-03-19 21:21:00,34.6,22.6,30.13,North,-999,4.8,-999.0,61,-99.99,,,-99.99,Acu-Link.com,2013-03-20 02:21:00,
2013-03-19 21:52:00,32.7,22.3,30.14,North,-999,4.8,-999.0,65,-99.99,,,-99.99,Acu-Link.com,2013-03-20 02:52:00,
2013-03-19 22:07:00,32.5,22.4,30.15,North,-999,12.8,-999.0,66,-99.99,,,-99.99,Acu-Link.com,2013-03-20 03:07:00,
2013-03-19 22:22:00,31.2,22.2,30.17,North,-999,11.2,-999.0,69,-99.99,,,-99.99,Acu-Link.com,2013-03-20 03:22:00,
2013-03-19 22:38:00,29.9,21.7,30.18,North,-999,12.8,-999.0,71,-99.99,,,-99.99,Acu-Link.com,2013-03-20 03:38:00,
2013-03-19 22:53:00,29.4,21.2,30.19,North,-999,8.0,-999.0,71,-99.99,,,-99.99,Acu-Link.com,2013-03-20 03:53:00,
2013-03-19 23:23:00,26.9,20.1,30.20,North,-999,8.0,-999.0,75,-99.99,,,-99.99,Acu-Link.com,2013-03-20 04:23:00,
2013-03-19 23:39:00,26.1,19.3,30.22,North,-999,4.8,-999.0,75,-99.99,,,-99.99,Acu-Link.com,2013-03-20 04:39:00,